Weather History for Glenwood, MN

Change the Weather History Date:

Saturday, April 13, 2013

  Actual Average Record
Temperature  
Mean Temperature 30 °F -  
Max Temperature 35 °F 53 °F 84 °F (2003)
Min Temperature 26 °F 33 °F 6 °F (1950)
Degree Days  
Heating Degree Days 34    
Moisture  
Dew Point 24 °F    
Average Humidity 83    
Maximum Humidity 100    
Minimum Humidity 56    
Precipitation  
Precipitation 0.00 in - - ()
Sea Level Pressure  
Sea Level Pressure 29.86 in    
Wind  
Wind Speed 9 mph (WNW)    
Max Wind Speed 14 mph    
Max Gust Speed 17 mph    
Visibility 9 miles    
Events Snow    
Averages and records for this station are not official NWS values.
T = Trace of Precipitation, MM = Missing Value Source: NWS Daily Summary

Daily Weather History Graph

Daily Weather History Graph

Search for Another Location

Airport:

Trip Planner

Search our weather history database for the weather conditions in past years. The results will help you decide how hot, cold, wet, or windy it might be!

Date:

Astronomy

Apr. 13, 2013 Rise Set
Actual Time 6:38 AM CDT 8:05 PM CDT
Civil Twilight 6:07 AM CDT 8:36 PM CDT
Nautical Twilight 5:30 AM CDT 9:14 PM CDT
Astronomical Twilight 4:50 AM CDT 9:54 PM CDT
Moon 8:22 AM CDT (4/13) 11:39 PM CDT (4/13)
Length of Visible Light 14h 28m
Length of Day
13h 26m
Waxing Crescent, 10% of the Moon is Illuminated
Apr 13
Waxing Crescent
Apr 18
First Quarter
Apr 25
Full
May 2
Last Quarter
May 9
New

Hourly Weather History & Observations

Time (CDT) Temp. Windchill Dew Point Humidity Pressure Visibility Wind Dir Wind Speed Gust Speed Precip Events Conditions
12:13 AM 26.6 °F 16.8 °F 26.6 °F 100% 29.85 in 4.0 mi WNW 10.4 mph - N/A Snow Light Snow
12:33 AM 26.6 °F 16.8 °F 26.6 °F 100% 29.85 in 7.0 mi WNW 10.4 mph - N/A Snow Light Snow
12:53 AM 26.6 °F 16.8 °F 26.6 °F 100% 29.85 in 5.0 mi WNW 10.4 mph - N/A Snow Light Snow
1:13 AM 26.6 °F 18.2 °F 26.6 °F 100% 29.84 in 4.0 mi WNW 8.1 mph - N/A Snow Light Snow
1:33 AM 26.6 °F 17.5 °F 26.6 °F 100% 29.84 in 4.0 mi WNW 9.2 mph - N/A Snow Light Snow
1:53 AM 28.4 °F 18.5 °F 26.6 °F 93% 29.85 in 4.0 mi WNW 11.5 mph - N/A Snow Light Snow
2:13 AM 28.4 °F 19.1 °F 26.6 °F 93% 29.84 in 7.0 mi WNW 10.4 mph - N/A Snow Light Snow
2:33 AM 28.4 °F 19.1 °F 26.6 °F 93% 29.84 in 5.0 mi WNW 10.4 mph - N/A   Overcast
2:53 AM 28.4 °F 18.0 °F 26.6 °F 93% 29.84 in 5.0 mi WNW 12.7 mph - N/A   Overcast
3:13 AM 26.6 °F 15.7 °F 26.6 °F 100% 29.84 in 7.0 mi WNW 12.7 mph - N/A   Overcast
3:33 AM 28.4 °F 19.7 °F 26.6 °F 93% 29.84 in 7.0 mi West 9.2 mph - N/A   Overcast
3:53 AM 26.6 °F 15.7 °F 24.8 °F 93% 29.83 in 7.0 mi West 12.7 mph - N/A Snow Light Snow
4:14 AM 26.6 °F 16.8 °F 24.8 °F 93% 29.84 in 10.0 mi West 10.4 mph - N/A   Overcast
4:33 AM 26.6 °F 16.2 °F 24.8 °F 93% 29.84 in 10.0 mi West 11.5 mph - N/A   Overcast
4:53 AM 26.6 °F 15.7 °F 24.8 °F 93% 29.84 in 10.0 mi WNW 12.7 mph 17.3 mph N/A   Overcast
5:14 AM 26.6 °F 15.2 °F 24.8 °F 93% 29.83 in 10.0 mi WNW 13.8 mph - N/A   Overcast
5:33 AM 26.6 °F 16.2 °F 24.8 °F 93% 29.84 in 10.0 mi WNW 11.5 mph - N/A   Overcast
5:53 AM 26.6 °F 16.8 °F 24.8 °F 93% 29.84 in 10.0 mi West 10.4 mph - N/A   Overcast
6:13 AM 26.6 °F 16.8 °F 24.8 °F 93% 29.84 in 10.0 mi WNW 10.4 mph - N/A   Overcast
6:33 AM 26.6 °F 16.8 °F 24.8 °F 93% 29.85 in 10.0 mi West 10.4 mph - N/A   Overcast
6:53 AM 26.6 °F 16.2 °F 24.8 °F 93% 29.85 in 10.0 mi West 11.5 mph - N/A   Overcast
7:13 AM 26.6 °F 16.8 °F 24.8 °F 93% 29.85 in 10.0 mi WNW 10.4 mph - N/A   Overcast
7:33 AM 26.6 °F 16.2 °F 24.8 °F 93% 29.86 in 10.0 mi West 11.5 mph - N/A   Overcast
7:53 AM 26.6 °F 16.8 °F 24.8 °F 93% 29.86 in 7.0 mi WNW 10.4 mph - N/A   Overcast
8:13 AM 26.6 °F 15.7 °F 26.6 °F 100% 29.86 in 5.0 mi WNW 12.7 mph - N/A   Overcast
8:33 AM 26.6 °F 16.8 °F 24.8 °F 93% 29.86 in 7.0 mi WNW 10.4 mph - N/A   Overcast
8:53 AM 26.6 °F 15.7 °F 24.8 °F 93% 29.86 in 10.0 mi WNW 12.7 mph - N/A   Overcast
9:13 AM 28.4 °F 18.5 °F 24.8 °F 86% 29.86 in 10.0 mi WNW 11.5 mph - N/A   Overcast
9:33 AM 28.4 °F 19.7 °F 24.8 °F 86% 29.87 in 10.0 mi WNW 9.2 mph - N/A   Overcast
9:53 AM 28.4 °F 19.7 °F 24.8 °F 86% 29.86 in 10.0 mi West 9.2 mph - N/A   Overcast
10:13 AM 28.4 °F 19.1 °F 24.8 °F 86% 29.87 in 10.0 mi WNW 10.4 mph - N/A   Overcast
10:33 AM 28.4 °F 19.7 °F 24.8 °F 86% 29.87 in 10.0 mi West 9.2 mph - N/A   Overcast
10:53 AM 30.2 °F 22.6 °F 24.8 °F 80% 29.87 in 10.0 mi West 8.1 mph - N/A   Overcast
11:13 AM 30.2 °F 22.6 °F 24.8 °F 80% 29.87 in 10.0 mi West 8.1 mph - N/A   Overcast
11:33 AM 30.2 °F 21.9 °F 24.8 °F 80% 29.88 in 10.0 mi WNW 9.2 mph - N/A   Overcast
11:53 AM 30.2 °F 20.8 °F 26.6 °F 86% 29.88 in 10.0 mi WNW 11.5 mph - N/A   Overcast
12:13 PM 30.2 °F 21.9 °F 24.8 °F 80% 29.88 in 10.0 mi West 9.2 mph - N/A   Overcast
12:33 PM 30.2 °F 21.3 °F 24.8 °F 80% 29.88 in 10.0 mi WNW 10.4 mph - N/A   Mostly Cloudy
12:53 PM 32.0 °F 24.8 °F 24.8 °F 75% 29.88 in 10.0 mi West 8.1 mph - N/A   Mostly Cloudy
1:13 PM 32.0 °F 25.6 °F 24.8 °F 75% 29.88 in 10.0 mi WNW 6.9 mph - N/A   Overcast
1:33 PM 30.2 °F 25.4 °F 24.8 °F 80% 29.88 in 10.0 mi West 4.6 mph - N/A   Overcast
1:53 PM 32.0 °F 24.8 °F 24.8 °F 75% 29.88 in 10.0 mi WNW 8.1 mph - N/A   Overcast
2:13 PM 32.0 °F 28.7 °F 23.0 °F 69% 29.88 in 10.0 mi WNW 3.5 mph - N/A   Overcast
2:33 PM 32.0 °F 26.4 °F 23.0 °F 69% 29.87 in 10.0 mi West 5.8 mph - N/A   Overcast
2:53 PM 33.8 °F 29.6 °F 23.0 °F 65% 29.87 in 10.0 mi WNW 4.6 mph - N/A   Scattered Clouds
3:13 PM 35.6 °F 31.7 °F 23.0 °F 60% 29.87 in 10.0 mi West 4.6 mph - N/A   Clear
3:33 PM 32.0 °F - 23.0 °F 69% 29.87 in 10.0 mi Calm Calm - N/A   Clear
3:53 PM 33.8 °F - 23.0 °F 65% 29.87 in 10.0 mi Calm Calm - N/A   Scattered Clouds
4:13 PM 35.6 °F - 23.0 °F 60% 29.86 in 10.0 mi Calm Calm - N/A   Scattered Clouds
4:33 PM 35.6 °F - 21.2 °F 56% 29.86 in 10.0 mi Calm Calm - N/A   Clear
4:53 PM 35.6 °F - 23.0 °F 60% 29.86 in 10.0 mi Calm Calm - N/A   Clear
5:13 PM 33.8 °F 28.6 °F 24.8 °F 70% 29.86 in 10.0 mi NNE 5.8 mph - N/A   Mostly Cloudy
5:34 PM 33.8 °F 28.6 °F 24.8 °F 70% 29.86 in 10.0 mi NE 5.8 mph - N/A   Overcast
5:53 PM 33.8 °F 26.4 °F 24.8 °F 70% 29.85 in 10.0 mi NE 9.2 mph - N/A   Overcast
6:13 PM 33.8 °F 27.0 °F 24.8 °F 70% 29.86 in 10.0 mi NNE 8.1 mph - N/A   Overcast
6:34 PM 32.0 °F 25.6 °F 24.8 °F 75% 29.86 in 10.0 mi NE 6.9 mph - N/A   Overcast
6:53 PM 32.0 °F 25.6 °F 23.0 °F 69% 29.86 in 10.0 mi ENE 6.9 mph - N/A   Overcast
7:13 PM 30.2 °F 23.4 °F 21.2 °F 69% 29.87 in 10.0 mi NE 6.9 mph - N/A   Overcast
7:33 PM 30.2 °F 26.7 °F 23.0 °F 75% 29.87 in 10.0 mi East 3.5 mph - N/A   Overcast
7:53 PM 30.2 °F - 24.8 °F 80% 29.88 in 10.0 mi Calm Calm - N/A   Overcast
8:13 PM 30.2 °F 25.4 °F 23.0 °F 75% 29.88 in 10.0 mi SE 4.6 mph - N/A   Overcast
8:33 PM 30.2 °F 23.4 °F 24.8 °F 80% 29.89 in 10.0 mi SE 6.9 mph - N/A   Overcast
8:53 PM 30.2 °F 25.4 °F 23.0 °F 75% 29.90 in 10.0 mi SE 4.6 mph - N/A   Mostly Cloudy
9:13 PM 28.4 °F 21.2 °F 23.0 °F 80% 29.90 in 10.0 mi ESE 6.9 mph - N/A   Scattered Clouds
9:53 PM 28.4 °F 22.2 °F 23.0 °F 80% 29.90 in 10.0 mi East 5.8 mph - N/A   Clear
10:13 PM 26.6 °F 20.0 °F 23.0 °F 86% 29.90 in 10.0 mi East 5.8 mph - N/A   Clear
10:33 PM 26.6 °F 20.0 °F 21.2 °F 80% 29.90 in 10.0 mi East 5.8 mph - N/A   Clear
10:53 PM 26.6 °F 18.2 °F 21.2 °F 80% 29.91 in 10.0 mi East 8.1 mph - N/A   Clear
11:13 PM 26.6 °F 18.2 °F 21.2 °F 80% 29.90 in 10.0 mi East 8.1 mph - N/A   Clear
11:33 PM 26.6 °F 18.2 °F 21.2 °F 80% 29.90 in 10.0 mi East 8.1 mph - N/A   Clear
11:53 PM 26.6 °F 18.2 °F 21.2 °F 80% 29.90 in 10.0 mi East 8.1 mph - N/A   Clear